This is the latest recevied weather packets stored in our database for station/object KI4FRU. If no packets are shown the sender has not sent any weather packets the latest 10 day(s).
| Time | Temp. | Humidity | Pressure | Rain* | Wind** | Luminosity | Snow |
|---|---|---|---|---|---|---|---|
| 1777923842 | 27.78° C | 44% | 1053.1 hPa | 0 mm | - | 572 W/m² | - |
| 1777923539 | 27.78° C | 43% | 1053.3 hPa | 0 mm | - | 588 W/m² | - |
| 1777923236 | 28.89° C | 42% | 1053.2 hPa | 0 mm | - | 201 W/m² | - |
| 1777922935 | 28.33° C | 43% | 1053.3 hPa | 0 mm | - | 443 W/m² | - |
| 1777922632 | 29.44° C | 42% | 1053.4 hPa | 0 mm | - | 65 W/m² | - |
| 1777922330 | 27.78° C | 43% | 1053.5 hPa | 0 mm | - | 380 W/m² | - |
| 1777922028 | 26.67° C | 44% | 1053.5 hPa | 0 mm | - | 633 W/m² | - |
| 1777921723 | 26.67° C | 44% | 1053.6 hPa | 0 mm | - | 417 W/m² | - |
| 1777921419 | 27.78° C | 44% | 1053.6 hPa | 0 mm | - | 57 W/m² | - |
| 1777921116 | 27.78° C | 41% | 1053.8 hPa | 0 mm | - | 358 W/m² | - |
| 1777920813 | 28.89° C | 45% | 1054 hPa | 0 mm | - | 164 W/m² | - |
| 1777920509 | 28.33° C | 41% | 1053.8 hPa | 0 mm | - | 96 W/m² | - |
| 1777920205 | 28.33° C | 41% | 1053.8 hPa | 0 mm | - | 96 W/m² | - |
| 1777919901 | 28.89° C | 42% | 1054.1 hPa | 0 mm | - | 140 W/m² | - |
| 1777919598 | 27.78° C | 41% | 1053.8 hPa | 0 mm | - | 685 W/m² | - |
| 1777919296 | 28.89° C | 42% | 1054.2 hPa | 0 mm | - | 191 W/m² | - |
| 1777918993 | 30° C | 40% | 1054 hPa | 0 mm | - | 76 W/m² | - |
| 1777918690 | 28.89° C | 40% | 1054.4 hPa | 0 mm | - | 83 W/m² | - |
| 1777918388 | 28.89° C | 44% | 1054.3 hPa | 0 mm | - | 95 W/m² | - |
| 1777918087 | 27.78° C | 41% | 1054.5 hPa | 0 mm | - | 185 W/m² | - |
| 1777917785 | 27.78° C | 43% | 1054.4 hPa | 0 mm | - | 166 W/m² | - |
| 1777917482 | 25.56° C | 48% | 1054.4 hPa | 0 mm | - | 699 W/m² | - |
| 1777917179 | 26.11° C | 42% | 1054.6 hPa | 0 mm | - | 632 W/m² | - |
| 1777916877 | 25.56° C | 44% | 1054.4 hPa | 0 mm | - | 736 W/m² | - |
| 1777916574 | 25.56° C | 43% | 1054.5 hPa | 0 mm | - | 744 W/m² | - |
* Rain latest hour (hover to see other rain measurements)
** Current wind speed in m/s (hover to see current wind gust speed)